NEW MELONES RESERVOIR (NML)

Elevation: 1135' · STANISLAUS R basin · Operator: US Bureau of Reclamation

Provisional data, subject to change.
Query executed Thursday at 12:12:33   clock

Select a sensor type for a plot of data.
Note: Reservoir Flows are daily averages.

Earlier

Date RES ELE    STORAGE    RES CHG    TOC STO    ABV TOC    OUTFLOW    INFLOW    EVAP    FNF    RIV REL    PPT INC    SPILL    DIS PWR   
 FEET   AF   AF   AF   AF   CFS   CFS   CFS   CFS   CFS   INCHES   CFS   CFS  
07/28/2015 821.82 349264 -2075 2420000 -2070736 1317 326 55 244 0 0.00 0 1317
07/29/2015 821.24 347085 -2179 2420000 -2072915 1472 429 56 324 0 0.00 0 1472
07/30/2015 820.81 345474 -1611 2420000 -2074526 1088 334 58 226 0 0.00 0 1088
07/31/2015 820.38 343869 -1605 2420000 -2076131 1091 341 59 238 0 0.00 0 1091
08/01/2015 819.86 341931 -1938 2420000 -2078069 1191 262 48 135 0 0.00 0 1191
08/02/2015 819.33 339965 -1966 2420000 -2080035 1249 312 54 226 0 0.00 0 1249
08/03/2015 818.80 338004 -1961 2420000 -2081996 1206 266 49 158 0 0.00 0 1206
08/04/2015 818.27 336052 -1952 2420000 -2083948 1225 290 49 151 0 0.00 0 1225
08/05/2015 817.67 333849 -2203 2420000 -2086151 1351 273 33 157 0 0.00 0 1351
08/06/2015 817.22 332201 -1648 2420000 -2087799 1066 274 39 141 0 0.00 0 1066
08/07/2015 816.50 329578 -2623 2420000 -2090422 1574 287 35 -129 1009 0.00 0 565
08/08/2015 815.94 327542 -2036 2420000 -2092458 1335 344 35 209 1327 0.00 0 8
08/09/2015 815.49 325916 -1626 2420000 -2094084 1126 341 35 203 1119 0.00 0 7
08/10/2015 815.06 324363 -1553 2420000 -2095637 1144 413 52 525 1136 0.00 0 8
08/11/2015 814.51 322387 -1976 2420000 -2097613 1239 287 44 121 564 0.00 0 675
08/12/2015 814.14 321059 -1328 2420000 -2098941 1023 399 46 197 0 0.00 0 1023
08/13/2015 813.88 320129 -- 2420000 -2099871 798 372 43 183 0 0.00 0 798
08/14/2015 813.30 318061 -2068 2420000 -2101939 1384 389 48 211 0 0.00 0 1384
08/15/2015 812.69 315893 -2168 2420000 -2104107 1405 356 44 162 0 0.00 0 1405
08/16/2015 811.98 313379 -2514 2420000 -2106621 1586 369 50 183 0 0.00 0 1586
08/17/2015 811.36 311197 -2182 2420000 -2108803 1496 448 52 251 0 0.00 0 1496
08/18/2015 810.95 309756 -1441 2420000 -2110244 1025 352 53 159 0 0.00 0 1025
08/19/2015 811.02 310001 245 2420000 -2109999 16 191 51 -20 0 0.00 0 16
08/20/2015 810.79 309197 -804 2420000 -2110803 725 369 49 170 0 0.00 0 725
08/21/2015 810.38 307764 -1433 2420000 -2112236 1008 326 40 129 0 0.00 0 1008
08/22/2015 809.92 306158 -1606 2420000 -2113842 1105 336 41 139 0 0.00 0 1105
08/23/2015 809.49 304666 -1492 2420000 -2115334 1051 342 43 150 0 0.00 0 1051
08/24/2015 809.04 303104 -1562 2420000 -2116896 1061 312 38 85 0 0.00 0 1061
08/25/2015 808.69 301896 -1208 2420000 -2118104 1046 479 42 231 0 0.00 0 1046
08/26/2015 808.43 301000 -896 2420000 -2119000 855 449 46 207 0 0.00 0 855
08/27/2015 -- -- -- -- -- -- -- -- -- -- -- -- --

Later | Latest

Warning! This data is preliminary and subject to revision.

Show NML Map | Plot NML Data | 1 Month NML Data | Real-Time NML Data | NML Info